sensor_id;sensor_type;location;lat;lon;timestamp;P1;durP1;ratioP1;P2;durP2;ratioP2
41309;SDS011;27057;51.438;-0.010;2023-07-29T00:00:47;5.65;;;1.58;;
41309;SDS011;27057;51.438;-0.010;2023-07-29T00:03:14;7.15;;;1.83;;
41309;SDS011;27057;51.438;-0.010;2023-07-29T00:05:42;14.10;;;1.70;;
41309;SDS011;27057;51.438;-0.010;2023-07-29T00:08:09;11.23;;;1.83;;
41309;SDS011;27057;51.438;-0.010;2023-07-29T00:10:37;5.88;;;1.70;;
41309;SDS011;27057;51.438;-0.010;2023-07-29T00:13:05;5.55;;;2.00;;
41309;SDS011;27057;51.438;-0.010;2023-07-29T00:15:32;6.00;;;1.73;;
41309;SDS011;27057;51.438;-0.010;2023-07-29T00:18:00;8.55;;;1.83;;
41309;SDS011;27057;51.438;-0.010;2023-07-29T00:20:27;4.93;;;1.90;;
41309;SDS011;27057;51.438;-0.010;2023-07-29T00:22:55;4.68;;;1.35;;
41309;SDS011;27057;51.438;-0.010;2023-07-29T00:25:23;4.43;;;1.50;;
41309;SDS011;27057;51.438;-0.010;2023-07-29T00:27:51;6.50;;;1.52;;
41309;SDS011;27057;51.438;-0.010;2023-07-29T00:30:21;8.18;;;2.63;;
41309;SDS011;27057;51.438;-0.010;2023-07-29T00:32:48;14.63;;;3.22;;
41309;SDS011;27057;51.438;-0.010;2023-07-29T00:35:16;14.45;;;3.80;;
41309;SDS011;27057;51.438;-0.010;2023-07-29T00:37:43;24.65;;;5.88;;
41309;SDS011;27057;51.438;-0.010;2023-07-29T00:40:15;23.58;;;6.65;;
41309;SDS011;27057;51.438;-0.010;2023-07-29T00:42:47;23.17;;;6.95;;
41309;SDS011;27057;51.438;-0.010;2023-07-29T00:45:16;6.75;;;3.17;;
41309;SDS011;27057;51.438;-0.010;2023-07-29T00:47:43;7.32;;;3.00;;
41309;SDS011;27057;51.438;-0.010;2023-07-29T00:50:12;3.75;;;1.70;;
41309;SDS011;27057;51.438;-0.010;2023-07-29T00:52:41;6.03;;;2.17;;
41309;SDS011;27057;51.438;-0.010;2023-07-29T00:55:08;2.67;;;1.85;;
41309;SDS011;27057;51.438;-0.010;2023-07-29T00:57:36;6.88;;;2.20;;
41309;SDS011;27057;51.438;-0.010;2023-07-29T01:00:04;4.00;;;2.30;;
41309;SDS011;27057;51.438;-0.010;2023-07-29T01:02:32;2.33;;;1.83;;
41309;SDS011;27057;51.438;-0.010;2023-07-29T01:05:00;1.38;;;0.98;;
41309;SDS011;27057;51.438;-0.010;2023-07-29T01:11:03;4.22;;;1.60;;
41309;SDS011;27057;51.438;-0.010;2023-07-29T01:18:44;9.50;;;2.03;;
41309;SDS011;27057;51.438;-0.010;2023-07-29T01:21:14;10.30;;;2.80;;
41309;SDS011;27057;51.438;-0.010;2023-07-29T01:23:44;5.82;;;2.72;;
41309;SDS011;27057;51.438;-0.010;2023-07-29T01:26:12;7.80;;;2.28;;
41309;SDS011;27057;51.438;-0.010;2023-07-29T01:28:40;7.10;;;2.65;;
41309;SDS011;27057;51.438;-0.010;2023-07-29T01:31:20;6.25;;;2.67;;
41309;SDS011;27057;51.438;-0.010;2023-07-29T01:33:58;3.20;;;1.77;;
41309;SDS011;27057;51.438;-0.010;2023-07-29T01:36:33;5.22;;;2.90;;
41309;SDS011;27057;51.438;-0.010;2023-07-29T01:39:06;4.55;;;2.53;;
41309;SDS011;27057;51.438;-0.010;2023-07-29T01:41:35;3.78;;;2.42;;
41309;SDS011;27057;51.438;-0.010;2023-07-29T01:44:03;4.30;;;2.63;;
41309;SDS011;27057;51.438;-0.010;2023-07-29T01:46:32;10.50;;;3.58;;
41309;SDS011;27057;51.438;-0.010;2023-07-29T01:49:01;7.38;;;2.83;;
41309;SDS011;27057;51.438;-0.010;2023-07-29T01:51:30;8.25;;;3.08;;
41309;SDS011;27057;51.438;-0.010;2023-07-29T01:53:58;4.40;;;2.40;;
41309;SDS011;27057;51.438;-0.010;2023-07-29T01:56:26;10.60;;;2.72;;
41309;SDS011;27057;51.438;-0.010;2023-07-29T01:58:55;7.53;;;3.20;;
41309;SDS011;27057;51.438;-0.010;2023-07-29T02:01:23;12.35;;;2.92;;
41309;SDS011;27057;51.438;-0.010;2023-07-29T02:03:51;4.90;;;2.28;;
41309;SDS011;27057;51.438;-0.010;2023-07-29T02:06:25;6.93;;;3.15;;
41309;SDS011;27057;51.438;-0.010;2023-07-29T02:08:54;7.38;;;2.80;;
41309;SDS011;27057;51.438;-0.010;2023-07-29T02:11:22;11.68;;;2.65;;
41309;SDS011;27057;51.438;-0.010;2023-07-29T02:13:55;7.88;;;2.10;;
41309;SDS011;27057;51.438;-0.010;2023-07-29T02:16:23;4.55;;;1.98;;
41309;SDS011;27057;51.438;-0.010;2023-07-29T02:18:51;6.72;;;2.70;;
41309;SDS011;27057;51.438;-0.010;2023-07-29T02:21:22;7.25;;;2.67;;
41309;SDS011;27057;51.438;-0.010;2023-07-29T02:23:49;6.43;;;2.88;;
41309;SDS011;27057;51.438;-0.010;2023-07-29T02:26:17;7.88;;;2.80;;
41309;SDS011;27057;51.438;-0.010;2023-07-29T02:28:46;6.18;;;2.83;;
41309;SDS011;27057;51.438;-0.010;2023-07-29T02:31:15;8.13;;;2.95;;
41309;SDS011;27057;51.438;-0.010;2023-07-29T02:33:44;11.57;;;2.95;;
41309;SDS011;27057;51.438;-0.010;2023-07-29T02:36:13;12.40;;;2.83;;
41309;SDS011;27057;51.438;-0.010;2023-07-29T02:38:41;4.38;;;2.67;;
41309;SDS011;27057;51.438;-0.010;2023-07-29T02:41:10;6.20;;;3.20;;
41309;SDS011;27057;51.438;-0.010;2023-07-29T02:43:41;7.63;;;3.47;;
41309;SDS011;27057;51.438;-0.010;2023-07-29T02:46:10;10.25;;;2.97;;
41309;SDS011;27057;51.438;-0.010;2023-07-29T02:48:37;6.28;;;3.17;;
41309;SDS011;27057;51.438;-0.010;2023-07-29T02:51:05;6.50;;;3.35;;
41309;SDS011;27057;51.438;-0.010;2023-07-29T02:53:32;11.13;;;3.05;;
41309;SDS011;27057;51.438;-0.010;2023-07-29T02:56:00;7.28;;;3.67;;
41309;SDS011;27057;51.438;-0.010;2023-07-29T02:58:27;8.82;;;3.60;;
41309;SDS011;27057;51.438;-0.010;2023-07-29T03:01:02;11.35;;;4.07;;
41309;SDS011;27057;51.438;-0.010;2023-07-29T03:03:31;10.88;;;4.22;;
41309;SDS011;27057;51.438;-0.010;2023-07-29T03:06:03;17.38;;;6.03;;
41309;SDS011;27057;51.438;-0.010;2023-07-29T03:08:33;32.22;;;8.85;;
41309;SDS011;27057;51.438;-0.010;2023-07-29T03:11:08;36.88;;;11.20;;
41309;SDS011;27057;51.438;-0.010;2023-07-29T03:13:40;46.85;;;14.35;;
41309;SDS011;27057;51.438;-0.010;2023-07-29T03:16:15;51.17;;;17.00;;
41309;SDS011;27057;51.438;-0.010;2023-07-29T03:18:52;46.72;;;18.42;;
41309;SDS011;27057;51.438;-0.010;2023-07-29T03:21:19;52.75;;;15.32;;
41309;SDS011;27057;51.438;-0.010;2023-07-29T03:23:47;52.67;;;16.95;;
41309;SDS011;27057;51.438;-0.010;2023-07-29T03:26:15;42.88;;;14.75;;
41309;SDS011;27057;51.438;-0.010;2023-07-29T03:28:43;56.47;;;15.48;;
41309;SDS011;27057;51.438;-0.010;2023-07-29T03:31:11;41.53;;;14.57;;
41309;SDS011;27057;51.438;-0.010;2023-07-29T03:33:39;49.90;;;15.32;;
41309;SDS011;27057;51.438;-0.010;2023-07-29T03:36:07;52.28;;;16.40;;
41309;SDS011;27057;51.438;-0.010;2023-07-29T03:38:35;40.75;;;14.18;;
41309;SDS011;27057;51.438;-0.010;2023-07-29T03:41:08;27.65;;;9.43;;
41309;SDS011;27057;51.438;-0.010;2023-07-29T03:43:39;36.67;;;11.25;;
41309;SDS011;27057;51.438;-0.010;2023-07-29T03:46:07;39.90;;;12.63;;
41309;SDS011;27057;51.438;-0.010;2023-07-29T03:48:39;31.13;;;10.25;;
41309;SDS011;27057;51.438;-0.010;2023-07-29T03:51:07;27.85;;;9.43;;
41309;SDS011;27057;51.438;-0.010;2023-07-29T03:53:35;35.40;;;11.90;;
41309;SDS011;27057;51.438;-0.010;2023-07-29T03:56:12;36.70;;;11.38;;
41309;SDS011;27057;51.438;-0.010;2023-07-29T03:58:39;32.83;;;11.32;;
41309;SDS011;27057;51.438;-0.010;2023-07-29T04:01:07;41.53;;;10.85;;
41309;SDS011;27057;51.438;-0.010;2023-07-29T04:03:35;41.55;;;14.25;;
41309;SDS011;27057;51.438;-0.010;2023-07-29T04:06:03;38.58;;;12.02;;
41309;SDS011;27057;51.438;-0.010;2023-07-29T04:08:31;39.35;;;14.20;;
41309;SDS011;27057;51.438;-0.010;2023-07-29T04:10:58;44.88;;;13.65;;
41309;SDS011;27057;51.438;-0.010;2023-07-29T04:13:26;44.75;;;13.65;;
41309;SDS011;27057;51.438;-0.010;2023-07-29T04:15:53;25.25;;;11.25;;
41309;SDS011;27057;51.438;-0.010;2023-07-29T04:18:24;35.15;;;10.50;;
41309;SDS011;27057;51.438;-0.010;2023-07-29T04:20:52;27.35;;;9.95;;
41309;SDS011;27057;51.438;-0.010;2023-07-29T04:23:20;31.95;;;9.73;;
41309;SDS011;27057;51.438;-0.010;2023-07-29T04:25:48;33.15;;;10.43;;
41309;SDS011;27057;51.438;-0.010;2023-07-29T04:28:16;26.83;;;8.80;;
41309;SDS011;27057;51.438;-0.010;2023-07-29T04:30:45;27.08;;;9.45;;
41309;SDS011;27057;51.438;-0.010;2023-07-29T04:33:12;23.98;;;8.75;;
41309;SDS011;27057;51.438;-0.010;2023-07-29T04:35:40;21.08;;;6.57;;
41309;SDS011;27057;51.438;-0.010;2023-07-29T04:38:07;23.95;;;6.10;;
41309;SDS011;27057;51.438;-0.010;2023-07-29T04:40:35;17.13;;;5.82;;
41309;SDS011;27057;51.438;-0.010;2023-07-29T04:43:05;14.57;;;6.07;;
41309;SDS011;27057;51.438;-0.010;2023-07-29T04:45:34;19.00;;;5.68;;
41309;SDS011;27057;51.438;-0.010;2023-07-29T04:48:01;11.80;;;5.85;;
41309;SDS011;27057;51.438;-0.010;2023-07-29T04:50:29;25.65;;;8.38;;
41309;SDS011;27057;51.438;-0.010;2023-07-29T04:53:01;40.05;;;12.73;;
41309;SDS011;27057;51.438;-0.010;2023-07-29T04:55:29;49.40;;;15.77;;
41309;SDS011;27057;51.438;-0.010;2023-07-29T04:57:56;44.55;;;16.50;;
41309;SDS011;27057;51.438;-0.010;2023-07-29T05:00:24;41.13;;;14.02;;
41309;SDS011;27057;51.438;-0.010;2023-07-29T05:02:52;49.50;;;12.90;;
41309;SDS011;27057;51.438;-0.010;2023-07-29T05:05:19;29.83;;;9.25;;
41309;SDS011;27057;51.438;-0.010;2023-07-29T05:07:48;32.88;;;8.80;;
41309;SDS011;27057;51.438;-0.010;2023-07-29T05:10:15;25.25;;;8.00;;
41309;SDS011;27057;51.438;-0.010;2023-07-29T05:12:44;18.77;;;5.82;;
41309;SDS011;27057;51.438;-0.010;2023-07-29T05:15:12;18.75;;;5.10;;
41309;SDS011;27057;51.438;-0.010;2023-07-29T05:17:39;15.25;;;6.00;;
41309;SDS011;27057;51.438;-0.010;2023-07-29T05:20:07;18.42;;;5.72;;
41309;SDS011;27057;51.438;-0.010;2023-07-29T05:22:36;15.75;;;5.40;;
41309;SDS011;27057;51.438;-0.010;2023-07-29T05:25:04;20.88;;;6.57;;
41309;SDS011;27057;51.438;-0.010;2023-07-29T05:27:32;16.48;;;5.35;;
41309;SDS011;27057;51.438;-0.010;2023-07-29T05:29:59;10.80;;;4.57;;
41309;SDS011;27057;51.438;-0.010;2023-07-29T05:32:27;22.77;;;5.47;;
41309;SDS011;27057;51.438;-0.010;2023-07-29T05:34:55;20.60;;;4.57;;
41309;SDS011;27057;51.438;-0.010;2023-07-29T05:37:23;14.65;;;5.38;;
41309;SDS011;27057;51.438;-0.010;2023-07-29T05:39:50;13.80;;;5.35;;
41309;SDS011;27057;51.438;-0.010;2023-07-29T05:42:18;18.83;;;6.03;;
41309;SDS011;27057;51.438;-0.010;2023-07-29T05:44:49;19.75;;;6.03;;
41309;SDS011;27057;51.438;-0.010;2023-07-29T05:47:19;16.10;;;4.78;;
41309;SDS011;27057;51.438;-0.010;2023-07-29T05:49:47;9.60;;;5.03;;
41309;SDS011;27057;51.438;-0.010;2023-07-29T05:52:14;15.65;;;4.45;;
41309;SDS011;27057;51.438;-0.010;2023-07-29T05:54:42;15.40;;;4.22;;
41309;SDS011;27057;51.438;-0.010;2023-07-29T05:57:11;13.18;;;5.43;;
41309;SDS011;27057;51.438;-0.010;2023-07-29T05:59:39;19.30;;;4.03;;
41309;SDS011;27057;51.438;-0.010;2023-07-29T06:02:07;10.85;;;4.10;;
41309;SDS011;27057;51.438;-0.010;2023-07-29T06:04:35;16.88;;;4.82;;
41309;SDS011;27057;51.438;-0.010;2023-07-29T06:07:03;21.95;;;5.63;;
41309;SDS011;27057;51.438;-0.010;2023-07-29T06:09:31;15.18;;;4.90;;
41309;SDS011;27057;51.438;-0.010;2023-07-29T06:11:59;12.55;;;4.13;;
41309;SDS011;27057;51.438;-0.010;2023-07-29T06:14:27;13.52;;;3.60;;
41309;SDS011;27057;51.438;-0.010;2023-07-29T06:16:54;9.98;;;4.25;;
41309;SDS011;27057;51.438;-0.010;2023-07-29T06:19:22;11.88;;;4.13;;
41309;SDS011;27057;51.438;-0.010;2023-07-29T06:21:50;10.45;;;4.18;;
41309;SDS011;27057;51.438;-0.010;2023-07-29T06:24:19;8.25;;;2.92;;
41309;SDS011;27057;51.438;-0.010;2023-07-29T06:26:46;8.45;;;3.78;;
41309;SDS011;27057;51.438;-0.010;2023-07-29T06:29:13;14.02;;;5.25;;
41309;SDS011;27057;51.438;-0.010;2023-07-29T06:31:41;8.68;;;3.35;;
41309;SDS011;27057;51.438;-0.010;2023-07-29T06:34:09;10.85;;;3.50;;
41309;SDS011;27057;51.438;-0.010;2023-07-29T06:36:36;15.10;;;3.92;;
41309;SDS011;27057;51.438;-0.010;2023-07-29T06:39:04;8.02;;;3.42;;
41309;SDS011;27057;51.438;-0.010;2023-07-29T06:41:32;7.70;;;3.70;;
41309;SDS011;27057;51.438;-0.010;2023-07-29T06:44:03;5.03;;;2.22;;
41309;SDS011;27057;51.438;-0.010;2023-07-29T06:46:31;4.57;;;3.38;;
41309;SDS011;27057;51.438;-0.010;2023-07-29T06:49:02;7.30;;;2.88;;
41309;SDS011;27057;51.438;-0.010;2023-07-29T06:51:29;11.90;;;3.70;;
41309;SDS011;27057;51.438;-0.010;2023-07-29T06:53:59;14.07;;;3.45;;
41309;SDS011;27057;51.438;-0.010;2023-07-29T06:56:26;13.88;;;3.50;;
41309;SDS011;27057;51.438;-0.010;2023-07-29T06:58:56;11.13;;;4.30;;
41309;SDS011;27057;51.438;-0.010;2023-07-29T07:01:23;10.63;;;4.88;;
41309;SDS011;27057;51.438;-0.010;2023-07-29T07:03:51;18.35;;;4.43;;
41309;SDS011;27057;51.438;-0.010;2023-07-29T07:06:21;12.18;;;4.57;;
41309;SDS011;27057;51.438;-0.010;2023-07-29T07:08:51;11.73;;;4.95;;
41309;SDS011;27057;51.438;-0.010;2023-07-29T07:11:19;9.80;;;3.85;;
41309;SDS011;27057;51.438;-0.010;2023-07-29T07:13:47;8.82;;;3.05;;
41309;SDS011;27057;51.438;-0.010;2023-07-29T07:16:14;9.27;;;3.15;;
41309;SDS011;27057;51.438;-0.010;2023-07-29T07:18:42;6.20;;;3.70;;
41309;SDS011;27057;51.438;-0.010;2023-07-29T07:21:10;12.27;;;4.97;;
41309;SDS011;27057;51.438;-0.010;2023-07-29T07:23:38;9.00;;;4.20;;
41309;SDS011;27057;51.438;-0.010;2023-07-29T07:26:08;9.52;;;4.18;;
41309;SDS011;27057;51.438;-0.010;2023-07-29T07:28:36;12.57;;;4.30;;
41309;SDS011;27057;51.438;-0.010;2023-07-29T07:31:03;4.05;;;2.88;;
41309;SDS011;27057;51.438;-0.010;2023-07-29T07:33:31;6.47;;;3.58;;
41309;SDS011;27057;51.438;-0.010;2023-07-29T07:35:59;7.45;;;3.35;;
41309;SDS011;27057;51.438;-0.010;2023-07-29T07:38:26;6.70;;;3.55;;
41309;SDS011;27057;51.438;-0.010;2023-07-29T07:40:54;8.27;;;3.60;;
41309;SDS011;27057;51.438;-0.010;2023-07-29T07:43:23;7.28;;;2.80;;
41309;SDS011;27057;51.438;-0.010;2023-07-29T07:45:51;8.75;;;2.88;;
41309;SDS011;27057;51.438;-0.010;2023-07-29T07:48:24;6.50;;;2.63;;
41309;SDS011;27057;51.438;-0.010;2023-07-29T07:50:51;5.25;;;2.33;;
41309;SDS011;27057;51.438;-0.010;2023-07-29T07:53:20;6.70;;;2.55;;
41309;SDS011;27057;51.438;-0.010;2023-07-29T07:55:47;7.82;;;2.97;;
41309;SDS011;27057;51.438;-0.010;2023-07-29T07:58:15;10.63;;;2.92;;
41309;SDS011;27057;51.438;-0.010;2023-07-29T08:00:43;9.30;;;3.33;;
41309;SDS011;27057;51.438;-0.010;2023-07-29T08:03:10;12.32;;;3.47;;
41309;SDS011;27057;51.438;-0.010;2023-07-29T08:05:38;7.00;;;3.22;;
41309;SDS011;27057;51.438;-0.010;2023-07-29T08:08:05;12.45;;;4.30;;
41309;SDS011;27057;51.438;-0.010;2023-07-29T08:10:33;15.32;;;6.60;;
41309;SDS011;27057;51.438;-0.010;2023-07-29T08:13:01;11.82;;;4.53;;
41309;SDS011;27057;51.438;-0.010;2023-07-29T08:15:28;14.57;;;5.28;;
41309;SDS011;27057;51.438;-0.010;2023-07-29T08:17:56;11.57;;;6.97;;
41309;SDS011;27057;51.438;-0.010;2023-07-29T08:20:24;14.23;;;8.65;;
41309;SDS011;27057;51.438;-0.010;2023-07-29T08:22:52;11.88;;;5.57;;
41309;SDS011;27057;51.438;-0.010;2023-07-29T08:25:19;7.95;;;4.05;;
41309;SDS011;27057;51.438;-0.010;2023-07-29T08:27:46;10.27;;;4.20;;
41309;SDS011;27057;51.438;-0.010;2023-07-29T08:30:14;4.22;;;2.92;;
41309;SDS011;27057;51.438;-0.010;2023-07-29T08:32:43;10.13;;;3.95;;
41309;SDS011;27057;51.438;-0.010;2023-07-29T08:35:11;5.03;;;2.63;;
41309;SDS011;27057;51.438;-0.010;2023-07-29T08:37:39;8.95;;;2.83;;
41309;SDS011;27057;51.438;-0.010;2023-07-29T08:40:09;6.50;;;3.08;;
41309;SDS011;27057;51.438;-0.010;2023-07-29T08:42:44;5.53;;;2.15;;
41309;SDS011;27057;51.438;-0.010;2023-07-29T08:45:14;6.55;;;2.58;;
41309;SDS011;27057;51.438;-0.010;2023-07-29T08:47:43;6.78;;;2.70;;
41309;SDS011;27057;51.438;-0.010;2023-07-29T08:50:13;11.10;;;3.70;;
41309;SDS011;27057;51.438;-0.010;2023-07-29T08:52:44;11.00;;;2.90;;
41309;SDS011;27057;51.438;-0.010;2023-07-29T08:55:13;11.05;;;3.80;;
41309;SDS011;27057;51.438;-0.010;2023-07-29T08:57:40;7.78;;;3.85;;
41309;SDS011;27057;51.438;-0.010;2023-07-29T09:00:08;7.78;;;2.53;;
41309;SDS011;27057;51.438;-0.010;2023-07-29T09:02:37;4.53;;;2.83;;
41309;SDS011;27057;51.438;-0.010;2023-07-29T09:05:05;12.90;;;3.53;;
41309;SDS011;27057;51.438;-0.010;2023-07-29T09:07:33;13.27;;;3.60;;
41309;SDS011;27057;51.438;-0.010;2023-07-29T09:10:08;11.77;;;3.88;;
41309;SDS011;27057;51.438;-0.010;2023-07-29T09:12:37;14.63;;;3.00;;
41309;SDS011;27057;51.438;-0.010;2023-07-29T09:15:06;5.75;;;2.70;;
41309;SDS011;27057;51.438;-0.010;2023-07-29T09:17:34;8.70;;;2.92;;
41309;SDS011;27057;51.438;-0.010;2023-07-29T09:20:02;5.10;;;2.40;;
41309;SDS011;27057;51.438;-0.010;2023-07-29T09:22:33;6.47;;;3.38;;
41309;SDS011;27057;51.438;-0.010;2023-07-29T09:25:01;4.80;;;2.83;;
41309;SDS011;27057;51.438;-0.010;2023-07-29T09:27:29;5.60;;;2.75;;
41309;SDS011;27057;51.438;-0.010;2023-07-29T09:29:58;8.75;;;3.10;;
41309;SDS011;27057;51.438;-0.010;2023-07-29T09:32:26;9.65;;;2.47;;
41309;SDS011;27057;51.438;-0.010;2023-07-29T09:34:53;7.88;;;2.75;;
41309;SDS011;27057;51.438;-0.010;2023-07-29T09:37:23;3.65;;;2.65;;
41309;SDS011;27057;51.438;-0.010;2023-07-29T09:39:51;3.55;;;1.90;;
41309;SDS011;27057;51.438;-0.010;2023-07-29T09:42:19;7.30;;;1.98;;
41309;SDS011;27057;51.438;-0.010;2023-07-29T09:44:50;8.85;;;2.20;;
41309;SDS011;27057;51.438;-0.010;2023-07-29T09:47:21;8.30;;;2.10;;
41309;SDS011;27057;51.438;-0.010;2023-07-29T09:49:50;10.38;;;2.58;;
41309;SDS011;27057;51.438;-0.010;2023-07-29T09:52:19;5.25;;;2.53;;
41309;SDS011;27057;51.438;-0.010;2023-07-29T09:54:48;4.88;;;2.78;;
41309;SDS011;27057;51.438;-0.010;2023-07-29T09:57:16;5.53;;;2.38;;
41309;SDS011;27057;51.438;-0.010;2023-07-29T09:59:53;11.52;;;2.60;;
41309;SDS011;27057;51.438;-0.010;2023-07-29T10:02:21;7.60;;;2.72;;
41309;SDS011;27057;51.438;-0.010;2023-07-29T10:04:50;9.25;;;2.63;;
41309;SDS011;27057;51.438;-0.010;2023-07-29T10:07:18;10.23;;;2.22;;
41309;SDS011;27057;51.438;-0.010;2023-07-29T10:09:46;4.60;;;1.80;;
41309;SDS011;27057;51.438;-0.010;2023-07-29T10:12:19;12.95;;;2.70;;
41309;SDS011;27057;51.438;-0.010;2023-07-29T10:14:49;7.05;;;2.10;;
41309;SDS011;27057;51.438;-0.010;2023-07-29T10:17:17;8.65;;;2.13;;
41309;SDS011;27057;51.438;-0.010;2023-07-29T10:19:47;7.57;;;1.90;;
41309;SDS011;27057;51.438;-0.010;2023-07-29T10:22:16;11.85;;;2.17;;
41309;SDS011;27057;51.438;-0.010;2023-07-29T10:24:46;10.30;;;2.65;;
41309;SDS011;27057;51.438;-0.010;2023-07-29T10:27:17;4.20;;;1.50;;
41309;SDS011;27057;51.438;-0.010;2023-07-29T10:29:46;2.38;;;1.80;;
41309;SDS011;27057;51.438;-0.010;2023-07-29T10:32:14;7.13;;;2.05;;
41309;SDS011;27057;51.438;-0.010;2023-07-29T10:34:42;5.00;;;2.15;;
41309;SDS011;27057;51.438;-0.010;2023-07-29T10:37:10;7.53;;;2.33;;
41309;SDS011;27057;51.438;-0.010;2023-07-29T10:39:40;6.38;;;2.30;;
41309;SDS011;27057;51.438;-0.010;2023-07-29T10:42:19;8.68;;;1.50;;
41309;SDS011;27057;51.438;-0.010;2023-07-29T10:44:51;10.32;;;2.15;;
41309;SDS011;27057;51.438;-0.010;2023-07-29T10:49:49;9.73;;;2.75;;
41309;SDS011;27057;51.438;-0.010;2023-07-29T10:52:32;7.63;;;1.83;;
41309;SDS011;27057;51.438;-0.010;2023-07-29T10:55:22;5.70;;;2.28;;
41309;SDS011;27057;51.438;-0.010;2023-07-29T10:57:52;10.35;;;2.40;;
41309;SDS011;27057;51.438;-0.010;2023-07-29T11:00:31;10.93;;;1.83;;
41309;SDS011;27057;51.438;-0.010;2023-07-29T11:03:00;8.15;;;2.40;;
41309;SDS011;27057;51.438;-0.010;2023-07-29T11:05:43;8.85;;;1.92;;
41309;SDS011;27057;51.438;-0.010;2023-07-29T11:08:18;4.60;;;1.83;;
41309;SDS011;27057;51.438;-0.010;2023-07-29T11:11:02;7.55;;;3.10;;
41309;SDS011;27057;51.438;-0.010;2023-07-29T11:13:30;8.25;;;2.40;;
41309;SDS011;27057;51.438;-0.010;2023-07-29T11:15:59;18.52;;;2.63;;
41309;SDS011;27057;51.438;-0.010;2023-07-29T11:18:30;8.27;;;2.90;;
41309;SDS011;27057;51.438;-0.010;2023-07-29T11:21:00;7.78;;;2.85;;
41309;SDS011;27057;51.438;-0.010;2023-07-29T11:23:35;4.60;;;2.10;;
41309;SDS011;27057;51.438;-0.010;2023-07-29T11:26:04;4.55;;;1.73;;
41309;SDS011;27057;51.438;-0.010;2023-07-29T11:28:37;10.55;;;2.67;;
41309;SDS011;27057;51.438;-0.010;2023-07-29T11:31:05;6.30;;;2.40;;
41309;SDS011;27057;51.438;-0.010;2023-07-29T11:33:33;14.07;;;2.38;;
41309;SDS011;27057;51.438;-0.010;2023-07-29T11:36:00;9.70;;;2.65;;
41309;SDS011;27057;51.438;-0.010;2023-07-29T11:38:28;8.48;;;2.42;;
41309;SDS011;27057;51.438;-0.010;2023-07-29T11:40:59;11.30;;;2.25;;
41309;SDS011;27057;51.438;-0.010;2023-07-29T11:43:27;10.75;;;2.55;;
41309;SDS011;27057;51.438;-0.010;2023-07-29T11:45:55;11.45;;;2.60;;
41309;SDS011;27057;51.438;-0.010;2023-07-29T11:48:32;6.47;;;2.03;;
41309;SDS011;27057;51.438;-0.010;2023-07-29T11:51:00;10.45;;;2.55;;
41309;SDS011;27057;51.438;-0.010;2023-07-29T11:53:30;11.73;;;2.90;;
41309;SDS011;27057;51.438;-0.010;2023-07-29T11:55:58;15.73;;;4.65;;
41309;SDS011;27057;51.438;-0.010;2023-07-29T11:58:27;21.35;;;8.95;;
41309;SDS011;27057;51.438;-0.010;2023-07-29T12:00:54;21.58;;;9.15;;
41309;SDS011;27057;51.438;-0.010;2023-07-29T12:03:23;16.25;;;4.72;;
41309;SDS011;27057;51.438;-0.010;2023-07-29T12:05:51;10.25;;;3.10;;
41309;SDS011;27057;51.438;-0.010;2023-07-29T12:08:19;13.10;;;4.32;;
41309;SDS011;27057;51.438;-0.010;2023-07-29T12:10:49;20.38;;;8.45;;
41309;SDS011;27057;51.438;-0.010;2023-07-29T12:13:17;56.42;;;20.50;;
41309;SDS011;27057;51.438;-0.010;2023-07-29T12:15:44;11.60;;;3.13;;
41309;SDS011;27057;51.438;-0.010;2023-07-29T12:18:12;6.70;;;2.85;;
41309;SDS011;27057;51.438;-0.010;2023-07-29T12:20:39;12.55;;;4.22;;
41309;SDS011;27057;51.438;-0.010;2023-07-29T12:23:08;6.30;;;2.65;;
41309;SDS011;27057;51.438;-0.010;2023-07-29T12:25:36;9.40;;;2.13;;
41309;SDS011;27057;51.438;-0.010;2023-07-29T12:28:05;9.93;;;2.38;;
41309;SDS011;27057;51.438;-0.010;2023-07-29T12:30:41;18.95;;;7.55;;
41309;SDS011;27057;51.438;-0.010;2023-07-29T12:33:09;52.72;;;18.95;;
41309;SDS011;27057;51.438;-0.010;2023-07-29T12:35:36;15.18;;;6.03;;
41309;SDS011;27057;51.438;-0.010;2023-07-29T12:38:04;10.25;;;3.67;;
41309;SDS011;27057;51.438;-0.010;2023-07-29T12:40:32;29.15;;;8.32;;
41309;SDS011;27057;51.438;-0.010;2023-07-29T12:43:05;11.25;;;3.80;;
41309;SDS011;27057;51.438;-0.010;2023-07-29T12:45:36;9.27;;;3.80;;
41309;SDS011;27057;51.438;-0.010;2023-07-29T12:48:06;15.85;;;6.13;;
41309;SDS011;27057;51.438;-0.010;2023-07-29T12:50:34;37.95;;;13.82;;
41309;SDS011;27057;51.438;-0.010;2023-07-29T12:53:02;15.20;;;7.32;;
41309;SDS011;27057;51.438;-0.010;2023-07-29T12:55:29;11.38;;;6.35;;
41309;SDS011;27057;51.438;-0.010;2023-07-29T12:57:57;15.15;;;6.40;;
41309;SDS011;27057;51.438;-0.010;2023-07-29T13:00:25;11.00;;;4.97;;
41309;SDS011;27057;51.438;-0.010;2023-07-29T13:02:53;11.63;;;2.30;;
41309;SDS011;27057;51.438;-0.010;2023-07-29T13:05:21;20.73;;;7.68;;
41309;SDS011;27057;51.438;-0.010;2023-07-29T13:07:48;8.85;;;2.42;;
41309;SDS011;27057;51.438;-0.010;2023-07-29T13:10:16;19.23;;;7.05;;
41309;SDS011;27057;51.438;-0.010;2023-07-29T13:12:43;21.23;;;8.68;;
41309;SDS011;27057;51.438;-0.010;2023-07-29T13:15:11;6.43;;;3.03;;
41309;SDS011;27057;51.438;-0.010;2023-07-29T13:17:38;15.07;;;5.72;;
41309;SDS011;27057;51.438;-0.010;2023-07-29T13:20:06;21.67;;;6.55;;
41309;SDS011;27057;51.438;-0.010;2023-07-29T13:22:34;6.40;;;1.92;;
41309;SDS011;27057;51.438;-0.010;2023-07-29T13:25:02;7.97;;;3.00;;
41309;SDS011;27057;51.438;-0.010;2023-07-29T13:27:29;11.32;;;1.90;;
41309;SDS011;27057;51.438;-0.010;2023-07-29T13:29:57;13.57;;;5.15;;
41309;SDS011;27057;51.438;-0.010;2023-07-29T13:32:24;16.15;;;4.20;;
41309;SDS011;27057;51.438;-0.010;2023-07-29T13:34:52;15.07;;;4.57;;
41309;SDS011;27057;51.438;-0.010;2023-07-29T13:37:20;31.58;;;10.27;;
41309;SDS011;27057;51.438;-0.010;2023-07-29T13:39:47;12.82;;;4.97;;
41309;SDS011;27057;51.438;-0.010;2023-07-29T13:42:14;7.82;;;3.25;;
41309;SDS011;27057;51.438;-0.010;2023-07-29T13:44:42;33.67;;;11.15;;
41309;SDS011;27057;51.438;-0.010;2023-07-29T13:47:09;4.95;;;2.40;;
41309;SDS011;27057;51.438;-0.010;2023-07-29T13:49:36;2.85;;;1.58;;
41309;SDS011;27057;51.438;-0.010;2023-07-29T13:52:04;14.80;;;4.00;;
41309;SDS011;27057;51.438;-0.010;2023-07-29T13:54:31;6.18;;;2.55;;
41309;SDS011;27057;51.438;-0.010;2023-07-29T13:56:59;3.65;;;1.95;;
41309;SDS011;27057;51.438;-0.010;2023-07-29T13:59:26;14.60;;;5.05;;
41309;SDS011;27057;51.438;-0.010;2023-07-29T14:01:54;9.90;;;3.70;;
41309;SDS011;27057;51.438;-0.010;2023-07-29T14:04:21;14.43;;;6.18;;
41309;SDS011;27057;51.438;-0.010;2023-07-29T14:06:49;26.27;;;11.35;;
41309;SDS011;27057;51.438;-0.010;2023-07-29T14:09:25;37.60;;;15.57;;
41309;SDS011;27057;51.438;-0.010;2023-07-29T14:11:54;74.32;;;33.58;;
41309;SDS011;27057;51.438;-0.010;2023-07-29T14:14:21;8.23;;;3.35;;
41309;SDS011;27057;51.438;-0.010;2023-07-29T14:16:49;33.50;;;14.88;;
41309;SDS011;27057;51.438;-0.010;2023-07-29T14:19:16;15.40;;;6.88;;
41309;SDS011;27057;51.438;-0.010;2023-07-29T14:21:44;23.45;;;12.18;;
41309;SDS011;27057;51.438;-0.010;2023-07-29T14:24:11;15.27;;;6.65;;
41309;SDS011;27057;51.438;-0.010;2023-07-29T14:26:39;20.55;;;7.10;;
41309;SDS011;27057;51.438;-0.010;2023-07-29T14:29:06;29.88;;;13.75;;
41309;SDS011;27057;51.438;-0.010;2023-07-29T14:31:34;4.55;;;2.90;;
41309;SDS011;27057;51.438;-0.010;2023-07-29T14:34:02;14.02;;;6.75;;
41309;SDS011;27057;51.438;-0.010;2023-07-29T14:36:29;4.15;;;1.40;;
41309;SDS011;27057;51.438;-0.010;2023-07-29T14:38:57;31.17;;;17.25;;
41309;SDS011;27057;51.438;-0.010;2023-07-29T14:41:24;11.07;;;4.10;;
41309;SDS011;27057;51.438;-0.010;2023-07-29T14:43:52;14.43;;;5.07;;
41309;SDS011;27057;51.438;-0.010;2023-07-29T14:46:19;4.80;;;2.38;;